Azle, TX (76098)

7:18 AM CDT on May 27, 2015 (GMT -0500)
Near-Jarvis & N Jarvis Ln's | | Change Station
CLOSE
Current Station
Personal Weather Station
Location: Azle, TX
Elevation: 768 ft
Nearby Weather Stations
Active Advisory: Flood Warning Active Notice: Public Information Statement

Elev 768 ft 32.89 °N, 97.53 °W | Updated 1 second ago

Partly Cloudy
Partly Cloudy
59.8 °F
Feels Like 59.8 °F
N
0.0
Wind Variable Wind from South
Gusts 0.0 mph

Today
High -- | Low -- °F
--% Chance of Precip.
Yesterday
High -- | Low -- °F
Precip. -- in
6:24 AM 8:30 PM
Waxing Gibbous, 67% visible
Pressure 29.96 in
Visibility 10.0 miles
Clouds Few 1200 ft
Scattered Clouds 25000 ft
Dew Point 59 °F
Humidity 96%
Rainfall 0.00 in
Snow Depth Not available.
UV 0 out of 12
Pollen 1.50 out of 12
Air Quality Not available.
Flu Activity Sporadic
METAR KNFW 271152Z 18004KT 10SM FEW012 SCT250 18/16 A3001 RMK AO2 SLP146 70021 T01780156 10222 20172 53007 $

More Conditions Fewer Conditions

Pressure 29.96 in
Visibility 10.0 miles
Clouds Few 1200 ft
Scattered Clouds 25000 ft
Dew Point 59 °F
Humidity 96%
Rainfall 0.00 in
Snow Depth Not available.
UV 0 out of 12
Pollen 1.50 out of 12
Air Quality Not available.
Flu Activity Sporadic
METAR KNFW 271152Z 18004KT 10SM FEW012 SCT250 18/16 A3001 RMK AO2 SLP146 70021 T01780156 10222 20172 53007 $

More Conditions Fewer Conditions

10-Day Weather Forecast

Almanac

Astronomy

May. 27, 2015 Rise Set
Actual Time
Civil Twilight
Nautical Twilight
Astronomical Twilight
Moon
Length of Visible Light
Length of Day
Tomorrow will be .
, % of the Moon is Illuminated

Today's Extremes

State Highs State Lows

Community

WunderPhotos

Upload Photos

1,824,642 photos uploaded!

WunderBlogs® & News

Nearby

Air Quality

  Air Quality AQ Index Pollutant
Not available.

Snow Depth

Station Depth Elevation

Earthquake Activity

City Distance Mag. Time & Date
Minimum magnitude displayed is 2.5.

Coastal Water Temperatures

Place Temperature

Stations

Nearby Weather Stations

Station Location Temp. Windchill Dew Point Humidity Wind Precip. Elev Updated Type
                   
Flood Warning
Statement as of 12:45 AM CDT on May 27, 2015

The National Weather Service in Fort Worth has issued a

* Flood Warning for
the Brazos river near Dennis.
* From Thursday afternoon until further notice... or until the warning
is cancelled.
* At 1230 am Wednesday the stage was 14.09 feet.
* Flood stage is 21.0 feet.
* Minor flooding is forecast.
* Forecast... the river should rise above flood stage by Thursday
afternoon and continue to rise to near 23.6 feet by Friday
afternoon. Additional rises are possible thereafter.


Lat... Lon 3262 9805 3253 9785 3262 9776 3269 9794